sensor_id;sensor_type;location;lat;lon;timestamp;P1;durP1;ratioP1;P2;durP2;ratioP2
70814;SDS011;58428;49.478;10.986;2023-02-24T00:03:56;24.83;;;11.15;;
70814;SDS011;58428;49.478;10.986;2023-02-24T00:06:23;24.88;;;12.45;;
70814;SDS011;58428;49.478;10.986;2023-02-24T00:09:05;22.77;;;11.80;;
70814;SDS011;58428;49.478;10.986;2023-02-24T00:11:34;22.17;;;11.05;;
70814;SDS011;58428;49.478;10.986;2023-02-24T00:14:04;22.50;;;11.38;;
70814;SDS011;58428;49.478;10.986;2023-02-24T00:16:34;23.42;;;12.63;;
70814;SDS011;58428;49.478;10.986;2023-02-24T00:19:01;23.20;;;12.07;;
70814;SDS011;58428;49.478;10.986;2023-02-24T00:21:28;24.73;;;11.65;;
70814;SDS011;58428;49.478;10.986;2023-02-24T00:23:54;25.27;;;11.73;;
70814;SDS011;58428;49.478;10.986;2023-02-24T00:26:23;23.23;;;11.80;;
70814;SDS011;58428;49.478;10.986;2023-02-24T00:28:51;22.70;;;12.10;;
70814;SDS011;58428;49.478;10.986;2023-02-24T00:31:17;22.75;;;11.20;;
70814;SDS011;58428;49.478;10.986;2023-02-24T00:33:44;23.42;;;12.30;;
70814;SDS011;58428;49.478;10.986;2023-02-24T00:36:18;22.08;;;11.40;;
70814;SDS011;58428;49.478;10.986;2023-02-24T00:38:48;25.67;;;13.18;;
70814;SDS011;58428;49.478;10.986;2023-02-24T00:41:15;24.65;;;12.93;;
70814;SDS011;58428;49.478;10.986;2023-02-24T00:43:43;24.52;;;12.73;;
70814;SDS011;58428;49.478;10.986;2023-02-24T00:46:18;24.63;;;12.32;;
70814;SDS011;58428;49.478;10.986;2023-02-24T00:48:47;25.08;;;12.95;;
70814;SDS011;58428;49.478;10.986;2023-02-24T00:51:17;24.52;;;11.95;;
70814;SDS011;58428;49.478;10.986;2023-02-24T00:53:50;23.90;;;13.38;;
70814;SDS011;58428;49.478;10.986;2023-02-24T00:56:23;27.88;;;13.25;;
70814;SDS011;58428;49.478;10.986;2023-02-24T00:58:51;25.55;;;13.63;;
70814;SDS011;58428;49.478;10.986;2023-02-24T01:01:19;25.77;;;13.02;;
70814;SDS011;58428;49.478;10.986;2023-02-24T01:03:49;26.27;;;13.13;;
70814;SDS011;58428;49.478;10.986;2023-02-24T01:06:17;28.52;;;14.00;;
70814;SDS011;58428;49.478;10.986;2023-02-24T01:08:44;24.40;;;12.15;;
70814;SDS011;58428;49.478;10.986;2023-02-24T01:11:16;24.90;;;12.90;;
70814;SDS011;58428;49.478;10.986;2023-02-24T01:14:12;23.92;;;13.85;;
70814;SDS011;58428;49.478;10.986;2023-02-24T01:16:42;26.42;;;13.43;;
70814;SDS011;58428;49.478;10.986;2023-02-24T01:21:43;27.67;;;14.40;;
70814;SDS011;58428;49.478;10.986;2023-02-24T01:24:10;27.63;;;14.45;;
70814;SDS011;58428;49.478;10.986;2023-02-24T01:26:36;26.55;;;13.27;;
70814;SDS011;58428;49.478;10.986;2023-02-24T01:29:01;25.70;;;12.98;;
70814;SDS011;58428;49.478;10.986;2023-02-24T01:31:34;24.95;;;12.88;;
70814;SDS011;58428;49.478;10.986;2023-02-24T01:34:03;29.65;;;13.95;;
70814;SDS011;58428;49.478;10.986;2023-02-24T01:36:31;27.45;;;14.30;;
70814;SDS011;58428;49.478;10.986;2023-02-24T01:39:17;25.85;;;13.68;;
70814;SDS011;58428;49.478;10.986;2023-02-24T01:41:43;25.83;;;13.68;;
70814;SDS011;58428;49.478;10.986;2023-02-24T01:46:47;26.85;;;13.75;;
70814;SDS011;58428;49.478;10.986;2023-02-24T01:49:26;26.65;;;14.70;;
70814;SDS011;58428;49.478;10.986;2023-02-24T01:52:10;28.55;;;13.13;;
70814;SDS011;58428;49.478;10.986;2023-02-24T01:54:52;29.55;;;13.50;;
70814;SDS011;58428;49.478;10.986;2023-02-24T01:57:23;28.30;;;14.55;;
70814;SDS011;58428;49.478;10.986;2023-02-24T01:59:53;28.60;;;13.05;;
70814;SDS011;58428;49.478;10.986;2023-02-24T02:02:25;27.88;;;12.85;;
70814;SDS011;58428;49.478;10.986;2023-02-24T02:05:05;31.58;;;14.82;;
70814;SDS011;58428;49.478;10.986;2023-02-24T02:07:34;27.23;;;13.48;;
70814;SDS011;58428;49.478;10.986;2023-02-24T02:10:03;27.02;;;12.90;;
70814;SDS011;58428;49.478;10.986;2023-02-24T02:12:31;27.55;;;12.93;;
70814;SDS011;58428;49.478;10.986;2023-02-24T02:15:01;29.77;;;13.23;;
70814;SDS011;58428;49.478;10.986;2023-02-24T02:20:32;28.58;;;13.10;;
70814;SDS011;58428;49.478;10.986;2023-02-24T02:35:34;33.67;;;14.85;;
70814;SDS011;58428;49.478;10.986;2023-02-24T02:43:40;27.98;;;13.18;;
70814;SDS011;58428;49.478;10.986;2023-02-24T02:46:19;29.83;;;14.00;;
70814;SDS011;58428;49.478;10.986;2023-02-24T02:49:22;29.90;;;14.90;;
70814;SDS011;58428;49.478;10.986;2023-02-24T02:51:50;29.00;;;13.98;;
70814;SDS011;58428;49.478;10.986;2023-02-24T03:00:00;28.27;;;14.73;;
70814;SDS011;58428;49.478;10.986;2023-02-24T03:02:53;29.40;;;13.93;;
70814;SDS011;58428;49.478;10.986;2023-02-24T03:05:24;28.30;;;14.15;;
70814;SDS011;58428;49.478;10.986;2023-02-24T03:07:54;28.48;;;13.57;;
70814;SDS011;58428;49.478;10.986;2023-02-24T03:10:25;28.23;;;13.93;;
70814;SDS011;58428;49.478;10.986;2023-02-24T03:12:53;26.65;;;13.52;;
70814;SDS011;58428;49.478;10.986;2023-02-24T03:15:41;33.47;;;16.35;;
70814;SDS011;58428;49.478;10.986;2023-02-24T03:18:12;28.75;;;14.13;;
70814;SDS011;58428;49.478;10.986;2023-02-24T03:20:51;28.60;;;13.65;;
70814;SDS011;58428;49.478;10.986;2023-02-24T03:23:23;29.15;;;15.07;;
70814;SDS011;58428;49.478;10.986;2023-02-24T03:25:58;33.65;;;15.60;;
70814;SDS011;58428;49.478;10.986;2023-02-24T03:28:36;31.02;;;14.15;;
70814;SDS011;58428;49.478;10.986;2023-02-24T03:31:11;30.42;;;13.68;;
70814;SDS011;58428;49.478;10.986;2023-02-24T03:34:04;29.17;;;14.40;;
70814;SDS011;58428;49.478;10.986;2023-02-24T03:36:36;29.73;;;13.57;;
70814;SDS011;58428;49.478;10.986;2023-02-24T03:39:02;30.60;;;14.88;;
70814;SDS011;58428;49.478;10.986;2023-02-24T03:41:41;35.22;;;16.38;;
70814;SDS011;58428;49.478;10.986;2023-02-24T03:44:13;27.95;;;13.45;;
70814;SDS011;58428;49.478;10.986;2023-02-24T03:46:40;30.67;;;13.85;;
70814;SDS011;58428;49.478;10.986;2023-02-24T03:49:11;31.85;;;14.23;;
70814;SDS011;58428;49.478;10.986;2023-02-24T03:51:40;30.98;;;14.27;;
70814;SDS011;58428;49.478;10.986;2023-02-24T03:59:59;28.25;;;14.07;;
70814;SDS011;58428;49.478;10.986;2023-02-24T04:05:36;27.50;;;12.70;;
70814;SDS011;58428;49.478;10.986;2023-02-24T04:08:11;26.98;;;13.88;;
70814;SDS011;58428;49.478;10.986;2023-02-24T04:13:36;29.95;;;13.85;;
70814;SDS011;58428;49.478;10.986;2023-02-24T04:16:29;29.98;;;14.73;;
70814;SDS011;58428;49.478;10.986;2023-02-24T04:19:01;31.70;;;15.20;;
70814;SDS011;58428;49.478;10.986;2023-02-24T04:21:31;30.65;;;15.02;;
70814;SDS011;58428;49.478;10.986;2023-02-24T04:23:59;32.15;;;15.73;;
70814;SDS011;58428;49.478;10.986;2023-02-24T04:26:30;30.55;;;14.73;;
70814;SDS011;58428;49.478;10.986;2023-02-24T04:28:57;31.40;;;14.32;;
70814;SDS011;58428;49.478;10.986;2023-02-24T04:31:23;33.30;;;15.48;;
70814;SDS011;58428;49.478;10.986;2023-02-24T04:33:51;35.33;;;15.13;;
70814;SDS011;58428;49.478;10.986;2023-02-24T04:36:20;30.13;;;14.32;;
70814;SDS011;58428;49.478;10.986;2023-02-24T04:38:46;32.92;;;15.40;;
70814;SDS011;58428;49.478;10.986;2023-02-24T04:43:42;29.88;;;14.88;;
70814;SDS011;58428;49.478;10.986;2023-02-24T04:48:34;30.80;;;13.87;;
70814;SDS011;58428;49.478;10.986;2023-02-24T04:51:00;32.47;;;13.90;;
70814;SDS011;58428;49.478;10.986;2023-02-24T04:53:27;33.60;;;15.07;;
70814;SDS011;58428;49.478;10.986;2023-02-24T04:55:53;34.50;;;15.57;;
70814;SDS011;58428;49.478;10.986;2023-02-24T04:58:21;30.80;;;13.75;;
70814;SDS011;58428;49.478;10.986;2023-02-24T05:00:51;33.47;;;15.38;;
70814;SDS011;58428;49.478;10.986;2023-02-24T05:03:17;33.55;;;15.30;;
70814;SDS011;58428;49.478;10.986;2023-02-24T05:05:47;35.88;;;15.70;;
70814;SDS011;58428;49.478;10.986;2023-02-24T05:08:20;31.38;;;14.80;;
70814;SDS011;58428;49.478;10.986;2023-02-24T05:10:47;33.67;;;14.90;;
70814;SDS011;58428;49.478;10.986;2023-02-24T05:13:19;34.42;;;15.45;;
70814;SDS011;58428;49.478;10.986;2023-02-24T05:15:50;38.50;;;17.30;;
70814;SDS011;58428;49.478;10.986;2023-02-24T05:18:16;39.63;;;16.48;;
70814;SDS011;58428;49.478;10.986;2023-02-24T05:20:43;37.50;;;15.43;;
70814;SDS011;58428;49.478;10.986;2023-02-24T05:23:29;30.33;;;13.93;;
70814;SDS011;58428;49.478;10.986;2023-02-24T05:26:00;31.95;;;14.82;;
70814;SDS011;58428;49.478;10.986;2023-02-24T05:28:27;35.63;;;14.98;;
70814;SDS011;58428;49.478;10.986;2023-02-24T05:31:03;35.95;;;16.45;;
70814;SDS011;58428;49.478;10.986;2023-02-24T05:33:32;38.50;;;16.00;;
70814;SDS011;58428;49.478;10.986;2023-02-24T05:36:01;34.00;;;15.23;;
70814;SDS011;58428;49.478;10.986;2023-02-24T05:38:29;34.40;;;15.07;;
70814;SDS011;58428;49.478;10.986;2023-02-24T05:40:54;35.65;;;15.48;;
70814;SDS011;58428;49.478;10.986;2023-02-24T05:43:29;33.97;;;15.85;;
70814;SDS011;58428;49.478;10.986;2023-02-24T05:45:59;37.17;;;15.45;;
70814;SDS011;58428;49.478;10.986;2023-02-24T05:48:28;34.60;;;14.98;;
70814;SDS011;58428;49.478;10.986;2023-02-24T05:50:59;33.90;;;15.40;;
70814;SDS011;58428;49.478;10.986;2023-02-24T05:53:26;35.00;;;16.08;;
70814;SDS011;58428;49.478;10.986;2023-02-24T05:55:52;35.97;;;15.38;;
70814;SDS011;58428;49.478;10.986;2023-02-24T05:58:17;36.00;;;15.23;;
70814;SDS011;58428;49.478;10.986;2023-02-24T06:00:43;35.90;;;16.95;;
70814;SDS011;58428;49.478;10.986;2023-02-24T06:03:10;34.60;;;15.68;;
70814;SDS011;58428;49.478;10.986;2023-02-24T06:05:41;33.13;;;15.15;;
70814;SDS011;58428;49.478;10.986;2023-02-24T06:08:08;40.20;;;16.92;;
70814;SDS011;58428;49.478;10.986;2023-02-24T06:10:36;33.10;;;15.60;;
70814;SDS011;58428;49.478;10.986;2023-02-24T06:13:05;31.92;;;16.25;;
70814;SDS011;58428;49.478;10.986;2023-02-24T06:15:32;36.78;;;16.15;;
70814;SDS011;58428;49.478;10.986;2023-02-24T06:17:59;36.85;;;15.48;;
70814;SDS011;58428;49.478;10.986;2023-02-24T06:20:26;40.95;;;16.88;;
70814;SDS011;58428;49.478;10.986;2023-02-24T06:22:53;37.38;;;16.52;;
70814;SDS011;58428;49.478;10.986;2023-02-24T06:25:21;37.40;;;16.13;;
70814;SDS011;58428;49.478;10.986;2023-02-24T06:27:53;35.17;;;14.88;;
70814;SDS011;58428;49.478;10.986;2023-02-24T06:30:23;37.58;;;16.27;;
70814;SDS011;58428;49.478;10.986;2023-02-24T06:32:50;37.47;;;16.17;;
70814;SDS011;58428;49.478;10.986;2023-02-24T06:35:16;36.63;;;15.00;;
70814;SDS011;58428;49.478;10.986;2023-02-24T06:37:44;37.53;;;16.83;;
70814;SDS011;58428;49.478;10.986;2023-02-24T06:40:10;38.67;;;16.52;;
70814;SDS011;58428;49.478;10.986;2023-02-24T06:42:46;39.83;;;17.25;;
70814;SDS011;58428;49.478;10.986;2023-02-24T06:45:14;39.13;;;17.30;;
70814;SDS011;58428;49.478;10.986;2023-02-24T06:47:42;38.17;;;15.30;;
70814;SDS011;58428;49.478;10.986;2023-02-24T06:50:09;36.25;;;16.33;;
70814;SDS011;58428;49.478;10.986;2023-02-24T06:52:37;39.50;;;18.17;;
70814;SDS011;58428;49.478;10.986;2023-02-24T06:55:08;39.63;;;17.95;;
70814;SDS011;58428;49.478;10.986;2023-02-24T06:57:59;35.47;;;17.58;;
70814;SDS011;58428;49.478;10.986;2023-02-24T07:00:29;38.10;;;15.30;;
70814;SDS011;58428;49.478;10.986;2023-02-24T07:03:07;35.38;;;15.32;;
70814;SDS011;58428;49.478;10.986;2023-02-24T07:05:44;38.42;;;15.18;;
70814;SDS011;58428;49.478;10.986;2023-02-24T07:08:22;37.63;;;15.98;;
70814;SDS011;58428;49.478;10.986;2023-02-24T07:10:54;40.20;;;17.33;;
70814;SDS011;58428;49.478;10.986;2023-02-24T07:13:22;43.45;;;17.10;;
70814;SDS011;58428;49.478;10.986;2023-02-24T07:15:54;38.38;;;17.17;;
70814;SDS011;58428;49.478;10.986;2023-02-24T07:18:21;37.10;;;16.95;;
70814;SDS011;58428;49.478;10.986;2023-02-24T07:20:50;39.50;;;17.63;;
70814;SDS011;58428;49.478;10.986;2023-02-24T07:23:16;38.58;;;17.17;;
70814;SDS011;58428;49.478;10.986;2023-02-24T07:25:45;38.15;;;16.63;;
70814;SDS011;58428;49.478;10.986;2023-02-24T07:28:13;39.70;;;15.82;;
70814;SDS011;58428;49.478;10.986;2023-02-24T07:30:41;36.42;;;15.63;;
70814;SDS011;58428;49.478;10.986;2023-02-24T07:33:07;39.22;;;16.63;;
70814;SDS011;58428;49.478;10.986;2023-02-24T07:35:33;38.38;;;16.40;;
70814;SDS011;58428;49.478;10.986;2023-02-24T07:38:04;38.97;;;15.32;;
70814;SDS011;58428;49.478;10.986;2023-02-24T07:40:30;36.83;;;16.10;;
70814;SDS011;58428;49.478;10.986;2023-02-24T07:42:57;37.15;;;16.25;;
70814;SDS011;58428;49.478;10.986;2023-02-24T07:45:26;37.33;;;16.60;;
70814;SDS011;58428;49.478;10.986;2023-02-24T07:47:53;36.63;;;15.90;;
70814;SDS011;58428;49.478;10.986;2023-02-24T07:50:19;35.45;;;16.02;;
70814;SDS011;58428;49.478;10.986;2023-02-24T07:52:45;37.65;;;17.25;;
70814;SDS011;58428;49.478;10.986;2023-02-24T07:55:16;38.65;;;17.38;;
70814;SDS011;58428;49.478;10.986;2023-02-24T07:57:41;39.38;;;17.05;;
70814;SDS011;58428;49.478;10.986;2023-02-24T08:00:11;38.40;;;16.52;;
70814;SDS011;58428;49.478;10.986;2023-02-24T08:03:13;37.08;;;16.00;;
70814;SDS011;58428;49.478;10.986;2023-02-24T08:05:40;34.10;;;15.90;;
70814;SDS011;58428;49.478;10.986;2023-02-24T08:08:07;34.75;;;15.73;;
70814;SDS011;58428;49.478;10.986;2023-02-24T08:10:33;37.65;;;17.05;;
70814;SDS011;58428;49.478;10.986;2023-02-24T08:13:01;37.05;;;17.00;;
70814;SDS011;58428;49.478;10.986;2023-02-24T08:15:28;39.00;;;16.20;;
70814;SDS011;58428;49.478;10.986;2023-02-24T08:17:58;40.10;;;18.52;;
70814;SDS011;58428;49.478;10.986;2023-02-24T08:20:27;39.38;;;17.20;;
70814;SDS011;58428;49.478;10.986;2023-02-24T08:23:00;35.70;;;17.30;;
70814;SDS011;58428;49.478;10.986;2023-02-24T08:25:27;37.80;;;17.52;;
70814;SDS011;58428;49.478;10.986;2023-02-24T08:27:59;36.47;;;16.00;;
70814;SDS011;58428;49.478;10.986;2023-02-24T08:30:30;39.45;;;16.77;;
70814;SDS011;58428;49.478;10.986;2023-02-24T08:33:03;38.42;;;17.42;;
70814;SDS011;58428;49.478;10.986;2023-02-24T08:35:34;39.20;;;16.58;;
70814;SDS011;58428;49.478;10.986;2023-02-24T08:38:03;39.10;;;17.98;;
70814;SDS011;58428;49.478;10.986;2023-02-24T08:40:39;36.90;;;15.45;;
70814;SDS011;58428;49.478;10.986;2023-02-24T08:48:35;35.80;;;15.82;;
70814;SDS011;58428;49.478;10.986;2023-02-24T08:51:17;37.33;;;16.05;;
70814;SDS011;58428;49.478;10.986;2023-02-24T08:53:47;35.55;;;15.30;;
70814;SDS011;58428;49.478;10.986;2023-02-24T08:56:17;33.92;;;15.60;;
70814;SDS011;58428;49.478;10.986;2023-02-24T08:58:48;38.10;;;15.45;;
70814;SDS011;58428;49.478;10.986;2023-02-24T09:01:29;35.40;;;16.55;;
70814;SDS011;58428;49.478;10.986;2023-02-24T09:03:59;36.72;;;15.50;;
70814;SDS011;58428;49.478;10.986;2023-02-24T09:06:46;36.85;;;15.88;;
70814;SDS011;58428;49.478;10.986;2023-02-24T09:09:15;34.40;;;15.00;;
70814;SDS011;58428;49.478;10.986;2023-02-24T09:11:49;35.63;;;17.15;;
70814;SDS011;58428;49.478;10.986;2023-02-24T09:14:20;38.28;;;15.25;;
70814;SDS011;58428;49.478;10.986;2023-02-24T09:16:49;33.75;;;15.88;;
70814;SDS011;58428;49.478;10.986;2023-02-24T09:22:27;33.90;;;14.52;;
70814;SDS011;58428;49.478;10.986;2023-02-24T09:27:52;31.52;;;14.40;;
70814;SDS011;58428;49.478;10.986;2023-02-24T09:30:23;30.25;;;14.88;;
70814;SDS011;58428;49.478;10.986;2023-02-24T09:33:00;34.40;;;14.85;;
70814;SDS011;58428;49.478;10.986;2023-02-24T09:35:32;31.05;;;14.57;;
70814;SDS011;58428;49.478;10.986;2023-02-24T09:38:01;30.33;;;14.43;;
70814;SDS011;58428;49.478;10.986;2023-02-24T09:40:31;28.40;;;13.27;;
70814;SDS011;58428;49.478;10.986;2023-02-24T09:43:13;31.38;;;13.85;;
70814;SDS011;58428;49.478;10.986;2023-02-24T09:45:50;27.50;;;12.75;;
70814;SDS011;58428;49.478;10.986;2023-02-24T09:48:31;29.58;;;12.70;;
70814;SDS011;58428;49.478;10.986;2023-02-24T09:51:08;28.33;;;13.07;;
70814;SDS011;58428;49.478;10.986;2023-02-24T09:53:50;27.80;;;13.27;;
70814;SDS011;58428;49.478;10.986;2023-02-24T10:09:43;25.55;;;12.20;;
70814;SDS011;58428;49.478;10.986;2023-02-24T10:12:42;25.38;;;11.88;;
70814;SDS011;58428;49.478;10.986;2023-02-24T10:15:11;29.70;;;13.15;;
70814;SDS011;58428;49.478;10.986;2023-02-24T10:18:03;30.55;;;13.80;;
70814;SDS011;58428;49.478;10.986;2023-02-24T10:20:51;29.17;;;14.02;;
70814;SDS011;58428;49.478;10.986;2023-02-24T10:23:24;26.40;;;12.98;;
70814;SDS011;58428;49.478;10.986;2023-02-24T10:31:36;27.17;;;12.23;;
70814;SDS011;58428;49.478;10.986;2023-02-24T10:34:15;27.02;;;12.95;;
70814;SDS011;58428;49.478;10.986;2023-02-24T10:36:50;24.45;;;12.50;;
70814;SDS011;58428;49.478;10.986;2023-02-24T10:39:24;30.35;;;13.52;;
70814;SDS011;58428;49.478;10.986;2023-02-24T10:42:00;23.83;;;12.13;;
70814;SDS011;58428;49.478;10.986;2023-02-24T10:45:02;24.48;;;12.00;;
70814;SDS011;58428;49.478;10.986;2023-02-24T10:47:36;25.48;;;12.02;;
70814;SDS011;58428;49.478;10.986;2023-02-24T10:50:54;23.63;;;12.07;;
70814;SDS011;58428;49.478;10.986;2023-02-24T10:53:16;23.90;;;11.80;;
70814;SDS011;58428;49.478;10.986;2023-02-24T10:56:04;23.35;;;11.35;;
70814;SDS011;58428;49.478;10.986;2023-02-24T11:02:01;23.50;;;11.32;;
70814;SDS011;58428;49.478;10.986;2023-02-24T11:04:51;25.17;;;11.55;;
70814;SDS011;58428;49.478;10.986;2023-02-24T11:07:29;24.73;;;11.60;;
70814;SDS011;58428;49.478;10.986;2023-02-24T11:10:17;22.80;;;10.85;;
70814;SDS011;58428;49.478;10.986;2023-02-24T11:12:50;24.17;;;11.50;;
70814;SDS011;58428;49.478;10.986;2023-02-24T11:15:44;21.08;;;10.70;;
70814;SDS011;58428;49.478;10.986;2023-02-24T11:18:37;24.73;;;11.27;;
70814;SDS011;58428;49.478;10.986;2023-02-24T11:21:12;24.10;;;10.88;;
70814;SDS011;58428;49.478;10.986;2023-02-24T11:23:41;22.48;;;10.95;;
70814;SDS011;58428;49.478;10.986;2023-02-24T11:40:25;22.27;;;9.98;;
70814;SDS011;58428;49.478;10.986;2023-02-24T11:43:01;22.60;;;10.25;;
70814;SDS011;58428;49.478;10.986;2023-02-24T11:45:38;22.10;;;9.52;;
70814;SDS011;58428;49.478;10.986;2023-02-24T12:01:49;19.52;;;8.98;;
70814;SDS011;58428;49.478;10.986;2023-02-24T12:12:38;20.92;;;9.05;;
70814;SDS011;58428;49.478;10.986;2023-02-24T12:15:12;20.75;;;8.55;;
70814;SDS011;58428;49.478;10.986;2023-02-24T12:23:20;17.95;;;8.60;;
70814;SDS011;58428;49.478;10.986;2023-02-24T12:31:06;19.02;;;8.77;;
70814;SDS011;58428;49.478;10.986;2023-02-24T12:45:22;16.13;;;7.43;;
70814;SDS011;58428;49.478;10.986;2023-02-24T12:50:34;16.95;;;7.68;;
70814;SDS011;58428;49.478;10.986;2023-02-24T12:53:38;16.10;;;7.72;;
70814;SDS011;58428;49.478;10.986;2023-02-24T12:56:11;16.20;;;7.38;;
70814;SDS011;58428;49.478;10.986;2023-02-24T12:58:49;17.73;;;7.13;;
70814;SDS011;58428;49.478;10.986;2023-02-24T13:13:07;14.70;;;7.03;;
70814;SDS011;58428;49.478;10.986;2023-02-24T13:15:57;14.15;;;6.20;;
70814;SDS011;58428;49.478;10.986;2023-02-24T13:18:28;16.25;;;6.80;;
70814;SDS011;58428;49.478;10.986;2023-02-24T13:24:00;16.27;;;7.55;;
70814;SDS011;58428;49.478;10.986;2023-02-24T13:26:28;16.92;;;7.03;;
70814;SDS011;58428;49.478;10.986;2023-02-24T13:29:17;15.50;;;6.38;;
70814;SDS011;58428;49.478;10.986;2023-02-24T13:31:46;16.92;;;7.25;;
70814;SDS011;58428;49.478;10.986;2023-02-24T13:37:06;15.65;;;6.60;;
70814;SDS011;58428;49.478;10.986;2023-02-24T13:39:34;18.95;;;6.95;;
70814;SDS011;58428;49.478;10.986;2023-02-24T13:42:15;15.10;;;5.72;;
70814;SDS011;58428;49.478;10.986;2023-02-24T13:48:00;14.57;;;6.70;;
70814;SDS011;58428;49.478;10.986;2023-02-24T14:02:04;17.02;;;6.55;;
70814;SDS011;58428;49.478;10.986;2023-02-24T14:04:47;26.08;;;7.60;;
70814;SDS011;58428;49.478;10.986;2023-02-24T14:07:22;16.92;;;7.47;;
70814;SDS011;58428;49.478;10.986;2023-02-24T14:09:51;16.63;;;7.30;;
70814;SDS011;58428;49.478;10.986;2023-02-24T14:12:22;18.10;;;7.38;;
70814;SDS011;58428;49.478;10.986;2023-02-24T14:14:51;16.77;;;7.22;;
70814;SDS011;58428;49.478;10.986;2023-02-24T14:17:21;18.95;;;7.82;;
70814;SDS011;58428;49.478;10.986;2023-02-24T14:19:50;18.90;;;8.13;;
70814;SDS011;58428;49.478;10.986;2023-02-24T14:22:19;15.95;;;7.10;;
70814;SDS011;58428;49.478;10.986;2023-02-24T14:24:46;17.70;;;7.82;;
70814;SDS011;58428;49.478;10.986;2023-02-24T14:27:25;16.88;;;6.82;;
70814;SDS011;58428;49.478;10.986;2023-02-24T14:29:52;17.92;;;7.60;;
70814;SDS011;58428;49.478;10.986;2023-02-24T14:32:22;18.58;;;7.45;;
70814;SDS011;58428;49.478;10.986;2023-02-24T14:34:51;15.90;;;7.20;;
70814;SDS011;58428;49.478;10.986;2023-02-24T14:37:26;19.83;;;8.15;;
70814;SDS011;58428;49.478;10.986;2023-02-24T14:39:56;21.13;;;7.85;;
70814;SDS011;58428;49.478;10.986;2023-02-24T14:42:23;18.75;;;8.15;;
70814;SDS011;58428;49.478;10.986;2023-02-24T14:47:19;17.23;;;7.70;;
70814;SDS011;58428;49.478;10.986;2023-02-24T14:50:05;16.77;;;7.43;;
70814;SDS011;58428;49.478;10.986;2023-02-24T15:00:36;16.88;;;7.25;;
70814;SDS011;58428;49.478;10.986;2023-02-24T15:05:42;17.90;;;7.50;;
70814;SDS011;58428;49.478;10.986;2023-02-24T15:08:17;20.48;;;7.65;;
70814;SDS011;58428;49.478;10.986;2023-02-24T15:10:53;17.27;;;8.25;;
70814;SDS011;58428;49.478;10.986;2023-02-24T15:16:57;17.20;;;7.35;;
70814;SDS011;58428;49.478;10.986;2023-02-24T15:21:55;17.92;;;8.00;;
70814;SDS011;58428;49.478;10.986;2023-02-24T15:24:26;18.45;;;7.63;;
70814;SDS011;58428;49.478;10.986;2023-02-24T15:29:29;17.92;;;8.15;;
70814;SDS011;58428;49.478;10.986;2023-02-24T15:31:56;18.50;;;8.27;;
70814;SDS011;58428;49.478;10.986;2023-02-24T15:34:26;18.23;;;8.00;;
70814;SDS011;58428;49.478;10.986;2023-02-24T15:36:55;28.45;;;15.48;;
70814;SDS011;58428;49.478;10.986;2023-02-24T15:39:26;21.95;;;10.05;;
70814;SDS011;58428;49.478;10.986;2023-02-24T15:44:56;16.63;;;7.40;;
70814;SDS011;58428;49.478;10.986;2023-02-24T15:47:24;14.82;;;6.35;;
70814;SDS011;58428;49.478;10.986;2023-02-24T15:50:10;15.80;;;6.82;;
70814;SDS011;58428;49.478;10.986;2023-02-24T15:52:37;16.40;;;6.43;;
70814;SDS011;58428;49.478;10.986;2023-02-24T15:55:06;17.08;;;7.35;;
70814;SDS011;58428;49.478;10.986;2023-02-24T15:57:34;14.50;;;6.53;;
70814;SDS011;58428;49.478;10.986;2023-02-24T16:00:01;15.52;;;6.50;;
70814;SDS011;58428;49.478;10.986;2023-02-24T16:02:33;19.67;;;6.78;;
70814;SDS011;58428;49.478;10.986;2023-02-24T16:04:58;16.58;;;7.47;;
70814;SDS011;58428;49.478;10.986;2023-02-24T16:07:27;20.88;;;8.45;;
70814;SDS011;58428;49.478;10.986;2023-02-24T16:09:56;17.90;;;7.72;;
70814;SDS011;58428;49.478;10.986;2023-02-24T16:12:25;17.23;;;7.50;;
70814;SDS011;58428;49.478;10.986;2023-02-24T16:14:53;16.45;;;6.65;;
70814;SDS011;58428;49.478;10.986;2023-02-24T16:20:13;18.73;;;7.53;;
70814;SDS011;58428;49.478;10.986;2023-02-24T16:22:40;20.90;;;9.10;;
70814;SDS011;58428;49.478;10.986;2023-02-24T16:25:06;17.80;;;7.45;;
70814;SDS011;58428;49.478;10.986;2023-02-24T16:27:32;18.85;;;7.70;;
70814;SDS011;58428;49.478;10.986;2023-02-24T16:29:58;16.70;;;7.78;;
70814;SDS011;58428;49.478;10.986;2023-02-24T16:32:27;25.90;;;12.55;;
70814;SDS011;58428;49.478;10.986;2023-02-24T16:34:56;24.23;;;11.73;;
70814;SDS011;58428;49.478;10.986;2023-02-24T16:37:28;29.45;;;14.40;;
70814;SDS011;58428;49.478;10.986;2023-02-24T16:39:54;29.27;;;14.18;;
70814;SDS011;58428;49.478;10.986;2023-02-24T16:42:21;17.67;;;8.80;;
70814;SDS011;58428;49.478;10.986;2023-02-24T16:44:49;25.10;;;10.25;;
70814;SDS011;58428;49.478;10.986;2023-02-24T16:47:18;24.67;;;12.38;;
70814;SDS011;58428;49.478;10.986;2023-02-24T16:49:46;21.38;;;10.52;;
70814;SDS011;58428;49.478;10.986;2023-02-24T16:52:12;21.10;;;8.98;;
70814;SDS011;58428;49.478;10.986;2023-02-24T16:54:38;18.17;;;8.07;;
70814;SDS011;58428;49.478;10.986;2023-02-24T16:57:04;20.23;;;9.15;;
70814;SDS011;58428;49.478;10.986;2023-02-24T16:59:30;20.23;;;8.85;;
70814;SDS011;58428;49.478;10.986;2023-02-24T17:01:56;19.38;;;8.15;;
70814;SDS011;58428;49.478;10.986;2023-02-24T17:04:23;18.60;;;7.75;;
70814;SDS011;58428;49.478;10.986;2023-02-24T17:06:49;23.75;;;9.10;;
70814;SDS011;58428;49.478;10.986;2023-02-24T17:09:15;17.55;;;7.80;;
70814;SDS011;58428;49.478;10.986;2023-02-24T17:11:42;18.17;;;8.13;;
70814;SDS011;58428;49.478;10.986;2023-02-24T17:14:15;19.50;;;7.97;;
70814;SDS011;58428;49.478;10.986;2023-02-24T17:16:42;23.88;;;10.27;;
70814;SDS011;58428;49.478;10.986;2023-02-24T17:19:07;39.65;;;19.33;;
70814;SDS011;58428;49.478;10.986;2023-02-24T17:21:33;29.83;;;15.43;;
70814;SDS011;58428;49.478;10.986;2023-02-24T17:23:59;28.02;;;14.23;;
70814;SDS011;58428;49.478;10.986;2023-02-24T17:26:24;19.38;;;8.95;;
70814;SDS011;58428;49.478;10.986;2023-02-24T17:28:49;20.25;;;9.30;;
70814;SDS011;58428;49.478;10.986;2023-02-24T17:31:15;20.58;;;8.77;;
70814;SDS011;58428;49.478;10.986;2023-02-24T17:33:41;19.70;;;8.90;;
70814;SDS011;58428;49.478;10.986;2023-02-24T17:36:08;19.83;;;8.43;;
70814;SDS011;58428;49.478;10.986;2023-02-24T17:38:33;20.77;;;8.57;;
70814;SDS011;58428;49.478;10.986;2023-02-24T17:40:59;21.45;;;9.95;;
70814;SDS011;58428;49.478;10.986;2023-02-24T17:43:26;20.17;;;9.27;;
70814;SDS011;58428;49.478;10.986;2023-02-24T17:45:53;19.10;;;8.55;;
70814;SDS011;58428;49.478;10.986;2023-02-24T17:48:19;20.27;;;8.63;;
70814;SDS011;58428;49.478;10.986;2023-02-24T17:53:12;18.83;;;7.80;;
70814;SDS011;58428;49.478;10.986;2023-02-24T17:55:38;18.98;;;7.97;;
70814;SDS011;58428;49.478;10.986;2023-02-24T17:58:06;19.92;;;8.07;;
70814;SDS011;58428;49.478;10.986;2023-02-24T18:00:32;20.65;;;8.73;;
70814;SDS011;58428;49.478;10.986;2023-02-24T18:02:57;50.50;;;23.60;;
70814;SDS011;58428;49.478;10.986;2023-02-24T18:05:23;20.67;;;9.38;;
70814;SDS011;58428;49.478;10.986;2023-02-24T18:07:50;26.83;;;13.10;;